createdAt,value
2019-03-01T00:00:14.193Z,13.16
2019-03-01T00:00:40.322Z,13.18
2019-03-01T00:01:06.434Z,13.27
2019-03-01T00:01:32.539Z,13.22
2019-03-01T00:01:58.649Z,13.23
2019-03-01T00:02:24.785Z,13.22
2019-03-01T00:02:50.893Z,13.33
2019-03-01T00:03:17.001Z,13.33
2019-03-01T00:03:43.103Z,13.3
2019-03-01T00:04:09.201Z,13.27
2019-03-01T00:04:35.317Z,13.27
2019-03-01T00:05:01.434Z,13.3
2019-03-01T00:05:27.559Z,13.33
2019-03-01T00:05:53.721Z,13.35
2019-03-01T00:06:19.860Z,13.38
2019-03-01T00:06:45.993Z,13.31
2019-03-01T00:07:12.099Z,13.31
2019-03-01T00:07:38.228Z,13.28
2019-03-01T00:08:04.347Z,13.25
2019-03-01T00:08:30.491Z,13.28
2019-03-01T00:08:56.622Z,13.3
2019-03-01T00:09:22.730Z,13.23
2019-03-01T00:09:48.836Z,13.25
2019-03-01T00:10:14.944Z,13.33
2019-03-01T00:10:42.073Z,13.19
2019-03-01T00:11:08.180Z,13.13
2019-03-01T00:11:34.288Z,13.15
2019-03-01T00:12:00.433Z,13.18
2019-03-01T00:12:26.572Z,13.16
2019-03-01T00:12:52.677Z,13.19
2019-03-01T00:13:18.789Z,13.18
2019-03-01T00:13:44.890Z,13.15
2019-03-01T00:14:10.999Z,13.09
2019-03-01T00:14:37.112Z,13.2
2019-03-01T00:15:03.223Z,13.27
2019-03-01T00:15:29.350Z,13.12
2019-03-01T00:15:55.498Z,13.23
2019-03-01T00:16:21.573Z,13.16
2019-03-01T00:16:47.672Z,13.12
2019-03-01T00:17:13.772Z,13.19
2019-03-01T00:17:39.886Z,13.16
2019-03-01T00:18:05.994Z,13.09
2019-03-01T00:18:32.098Z,13.12
2019-03-01T00:18:58.202Z,13.18
2019-03-01T00:19:24.314Z,13.2
2019-03-01T00:19:50.419Z,13.11
2019-03-01T00:20:16.529Z,13.18
2019-03-01T00:20:42.641Z,13.09
2019-03-01T00:21:08.783Z,13.11
2019-03-01T00:21:34.918Z,13.2
2019-03-01T00:22:01.029Z,13.19
2019-03-01T00:22:27.134Z,13.27
2019-03-01T00:22:53.239Z,13.18
2019-03-01T00:23:19.347Z,13.13
2019-03-01T00:23:45.456Z,13.18
2019-03-01T00:24:11.566Z,13.16
2019-03-01T00:24:37.670Z,13.12
2019-03-01T00:25:03.775Z,13.15
2019-03-01T00:25:29.884Z,13.11
2019-03-01T00:25:55.991Z,13.13
2019-03-01T00:26:22.131Z,13.05
2019-03-01T00:26:48.244Z,13.09
2019-03-01T00:27:14.346Z,13.09
2019-03-01T00:27:40.456Z,13.09
2019-03-01T00:28:06.557Z,13.09
2019-03-01T00:28:32.665Z,13.01
2019-03-01T00:28:58.762Z,12.98
2019-03-01T00:29:24.900Z,13
2019-03-01T00:29:51.014Z,12.94
2019-03-01T00:30:17.123Z,13.01
2019-03-01T00:30:43.219Z,12.95
2019-03-01T00:31:09.323Z,12.95
2019-03-01T00:31:35.429Z,12.97
2019-03-01T00:32:01.558Z,12.94
2019-03-01T00:32:27.668Z,12.97
2019-03-01T00:32:53.768Z,12.95
2019-03-01T00:33:19.908Z,12.94
2019-03-01T00:33:46.007Z,12.98
2019-03-01T00:34:12.147Z,13.05
2019-03-01T00:34:38.255Z,12.98
2019-03-01T00:35:04.354Z,13
2019-03-01T00:35:30.459Z,12.97
2019-03-01T00:35:56.568Z,12.97
2019-03-01T00:36:22.713Z,12.94
2019-03-01T00:36:48.826Z,13
2019-03-01T00:37:14.960Z,12.94
2019-03-01T00:37:41.067Z,12.87
2019-03-01T00:38:07.202Z,12.98
2019-03-01T00:38:33.307Z,12.87
2019-03-01T00:38:59.417Z,12.98
2019-03-01T00:39:25.519Z,12.91
2019-03-01T00:39:51.630Z,12.95
2019-03-01T00:40:17.737Z,12.94
2019-03-01T00:40:43.840Z,12.95
2019-03-01T00:41:09.943Z,12.98
2019-03-01T00:41:36.053Z,12.95
2019-03-01T00:42:02.156Z,12.94
2019-03-01T00:42:28.259Z,12.97
2019-03-01T00:42:54.371Z,12.95
2019-03-01T00:43:20.485Z,12.98
2019-03-01T00:43:46.582Z,13
2019-03-01T00:44:12.686Z,13
2019-03-01T00:44:38.801Z,12.97
2019-03-01T00:45:04.934Z,12.97
2019-03-01T00:45:31.056Z,13.09
2019-03-01T00:45:57.183Z,12.93
2019-03-01T00:46:23.292Z,12.95
2019-03-01T00:46:49.428Z,12.97
2019-03-01T00:47:15.532Z,13
2019-03-01T00:47:41.646Z,12.97
2019-03-01T00:48:07.778Z,13.01
2019-03-01T00:48:33.886Z,13
2019-03-01T00:49:00.021Z,13.01
2019-03-01T00:49:26.137Z,13.01
2019-03-01T00:49:52.298Z,12.93
2019-03-01T00:50:18.426Z,12.94
2019-03-01T00:50:44.537Z,12.98
2019-03-01T00:51:10.644Z,12.95
2019-03-01T00:51:36.780Z,12.95
2019-03-01T00:52:02.894Z,12.94
2019-03-01T00:52:29.001Z,12.93
2019-03-01T00:52:55.108Z,12.94
2019-03-01T00:53:21.241Z,12.93
2019-03-01T00:53:47.341Z,12.86
2019-03-01T00:54:13.449Z,12.94
2019-03-01T00:54:39.560Z,12.87
2019-03-01T00:55:05.723Z,12.94
2019-03-01T00:55:31.825Z,12.97
2019-03-01T00:55:57.931Z,12.94
2019-03-01T00:56:24.059Z,12.97
2019-03-01T00:56:50.203Z,12.94
2019-03-01T00:57:16.311Z,12.94
2019-03-01T00:57:42.444Z,12.97
2019-03-01T00:58:08.556Z,12.98
2019-03-01T00:58:34.658Z,12.97
2019-03-01T00:59:00.772Z,12.97
2019-03-01T00:59:26.893Z,13.01
2019-03-01T00:59:52.998Z,13
2019-03-01T01:00:19.104Z,12.98
2019-03-01T01:00:45.209Z,13.09
2019-03-01T01:01:11.312Z,13.05
2019-03-01T01:01:37.418Z,13.01
2019-03-01T01:02:03.554Z,13.08
2019-03-01T01:02:29.686Z,13.09
2019-03-01T01:02:55.794Z,13.03
2019-03-01T01:03:21.903Z,13.09
2019-03-01T01:03:48.010Z,13.05
2019-03-01T01:04:14.113Z,12.98
2019-03-01T01:04:40.219Z,12.91
2019-03-01T01:05:06.321Z,12.97
2019-03-01T01:05:32.431Z,12.98
2019-03-01T01:05:58.580Z,12.97
2019-03-01T01:06:24.738Z,12.94
2019-03-01T01:06:50.845Z,12.94
2019-03-01T01:07:16.948Z,12.94
2019-03-01T01:07:43.054Z,12.94
2019-03-01T01:08:09.164Z,12.94
2019-03-01T01:08:35.276Z,12.91
2019-03-01T01:09:01.404Z,12.87
2019-03-01T01:09:27.510Z,12.91
2019-03-01T01:09:53.616Z,12.82
2019-03-01T01:10:19.721Z,12.78
2019-03-01T01:10:45.828Z,12.85
2019-03-01T01:11:11.933Z,12.78
2019-03-01T01:11:38.046Z,12.85
2019-03-01T01:12:04.159Z,12.8
2019-03-01T01:12:30.292Z,12.94
2019-03-01T01:12:56.404Z,12.95
2019-03-01T01:13:22.508Z,12.91
2019-03-01T01:13:48.617Z,12.9
2019-03-01T01:14:14.759Z,12.8
2019-03-01T01:14:40.864Z,12.95
2019-03-01T01:15:06.973Z,12.82
2019-03-01T01:15:33.092Z,12.85
2019-03-01T01:15:59.199Z,12.9
2019-03-01T01:16:25.333Z,12.8
2019-03-01T01:16:51.443Z,12.8
2019-03-01T01:17:17.542Z,12.82
2019-03-01T01:17:43.661Z,12.93
2019-03-01T01:18:09.818Z,12.82
2019-03-01T01:18:35.924Z,12.87
2019-03-01T01:19:02.033Z,12.93
2019-03-01T01:19:28.171Z,12.87
2019-03-01T01:19:54.286Z,12.95
2019-03-01T01:20:20.384Z,12.86
2019-03-01T01:20:46.488Z,13.01
2019-03-01T01:21:12.628Z,12.94
2019-03-01T01:21:38.766Z,12.95
2019-03-01T01:22:04.876Z,12.91
2019-03-01T01:22:31.016Z,12.97
2019-03-01T01:22:57.121Z,12.86
2019-03-01T01:23:23.250Z,12.94
2019-03-01T01:23:49.359Z,12.95
2019-03-01T01:24:15.505Z,12.91
2019-03-01T01:24:41.597Z,12.94
2019-03-01T01:25:07.704Z,12.86
2019-03-01T01:25:33.817Z,12.9
2019-03-01T01:25:59.921Z,12.9
2019-03-01T01:26:26.037Z,12.93
2019-03-01T01:26:52.172Z,12.85
2019-03-01T01:27:18.273Z,12.82
2019-03-01T01:27:45.395Z,12.86
2019-03-01T01:28:11.508Z,12.78
2019-03-01T01:28:37.619Z,12.82
2019-03-01T01:29:03.728Z,12.83
2019-03-01T01:29:29.838Z,12.83
2019-03-01T01:29:55.947Z,12.85
2019-03-01T01:30:22.048Z,12.83
2019-03-01T01:30:48.192Z,12.8
2019-03-01T01:31:14.333Z,12.86
2019-03-01T01:31:40.465Z,12.82
2019-03-01T01:32:06.570Z,12.82
2019-03-01T01:32:32.676Z,12.79
2019-03-01T01:32:58.810Z,12.8
2019-03-01T01:33:24.893Z,12.86
2019-03-01T01:33:51.015Z,12.78
2019-03-01T01:34:17.115Z,12.82
2019-03-01T01:34:43.225Z,12.82
2019-03-01T01:35:09.328Z,12.86
2019-03-01T01:35:35.431Z,12.85
2019-03-01T01:36:01.537Z,12.86
2019-03-01T01:36:27.652Z,12.85
2019-03-01T01:36:53.754Z,12.82
2019-03-01T01:37:19.861Z,12.82
2019-03-01T01:37:45.991Z,12.82
2019-03-01T01:38:12.099Z,12.82
2019-03-01T01:38:38.205Z,12.82
2019-03-01T01:39:04.305Z,12.82
2019-03-01T01:39:30.415Z,12.83
2019-03-01T01:39:56.525Z,12.75
2019-03-01T01:40:22.647Z,12.86
2019-03-01T01:40:48.759Z,12.79
2019-03-01T01:41:14.863Z,12.87
2019-03-01T01:41:40.976Z,12.82
2019-03-01T01:42:07.111Z,12.82
2019-03-01T01:42:33.213Z,12.82
2019-03-01T01:42:59.321Z,12.8
2019-03-01T01:43:25.427Z,12.85
2019-03-01T01:43:51.537Z,12.73
2019-03-01T01:44:17.692Z,12.68
2019-03-01T01:44:43.799Z,12.73
2019-03-01T01:45:09.929Z,12.73
2019-03-01T01:45:36.072Z,12.73
2019-03-01T01:46:02.243Z,12.85
2019-03-01T01:46:28.354Z,12.85
2019-03-01T01:46:54.460Z,12.65
2019-03-01T01:47:20.573Z,12.78
2019-03-01T01:47:46.678Z,12.68
2019-03-01T01:48:12.804Z,12.79
2019-03-01T01:48:38.909Z,12.72
2019-03-01T01:49:05.053Z,12.73
2019-03-01T01:49:31.155Z,12.75
2019-03-01T01:49:57.266Z,12.73
2019-03-01T01:50:23.380Z,12.68
2019-03-01T01:50:49.483Z,12.76
2019-03-01T01:51:15.583Z,12.72
2019-03-01T01:51:41.691Z,12.67
2019-03-01T01:52:07.799Z,12.55
2019-03-01T01:52:33.908Z,12.67
2019-03-01T01:53:00.065Z,12.62
2019-03-01T01:53:26.208Z,12.75
2019-03-01T01:53:52.311Z,12.72
2019-03-01T01:54:18.424Z,12.67
2019-03-01T01:54:44.530Z,12.7
2019-03-01T01:55:10.750Z,12.67
2019-03-01T01:55:36.853Z,12.61
2019-03-01T01:56:02.964Z,12.72
2019-03-01T01:56:29.075Z,12.57
2019-03-01T01:56:55.178Z,12.61
2019-03-01T01:57:21.290Z,12.67
2019-03-01T01:57:47.392Z,12.58
2019-03-01T01:58:13.505Z,12.62
2019-03-01T01:58:39.606Z,12.62
2019-03-01T01:59:05.726Z,12.58
2019-03-01T01:59:31.934Z,12.72
2019-03-01T01:59:58.049Z,12.55
2019-03-01T02:00:24.179Z,12.58
2019-03-01T02:00:50.287Z,12.7
2019-03-01T02:01:16.392Z,12.68
2019-03-01T02:01:42.523Z,12.64
2019-03-01T02:02:08.640Z,12.62
2019-03-01T02:02:34.747Z,12.61
2019-03-01T02:03:00.859Z,12.61
2019-03-01T02:03:26.966Z,12.6
2019-03-01T02:03:53.074Z,12.55
2019-03-01T02:04:19.175Z,12.55
2019-03-01T02:04:45.293Z,12.55
2019-03-01T02:05:11.426Z,12.55
2019-03-01T02:05:37.553Z,12.54
2019-03-01T02:06:03.664Z,12.49
2019-03-01T02:06:29.773Z,12.64
2019-03-01T02:06:55.880Z,12.61
2019-03-01T02:07:21.982Z,12.64
2019-03-01T02:07:48.117Z,12.62
2019-03-01T02:08:14.227Z,12.61
2019-03-01T02:08:40.330Z,12.55
2019-03-01T02:09:06.439Z,12.55
2019-03-01T02:09:32.582Z,12.55
2019-03-01T02:09:58.686Z,12.49
2019-03-01T02:10:24.796Z,12.49
2019-03-01T02:10:50.907Z,12.49
2019-03-01T02:11:17.015Z,12.45
2019-03-01T02:11:43.123Z,12.49
2019-03-01T02:12:09.262Z,12.5
2019-03-01T02:12:35.368Z,12.49
2019-03-01T02:13:01.508Z,12.49
2019-03-01T02:13:27.610Z,12.47
2019-03-01T02:13:53.724Z,12.49
2019-03-01T02:14:19.827Z,12.42
2019-03-01T02:14:45.933Z,12.53
2019-03-01T02:15:12.690Z,12.49
2019-03-01T02:15:38.176Z,12.42
2019-03-01T02:16:04.280Z,12.43
2019-03-01T02:16:30.417Z,12.49
2019-03-01T02:16:56.523Z,12.49
2019-03-01T02:17:22.631Z,12.49
2019-03-01T02:17:48.737Z,12.49
2019-03-01T02:18:14.878Z,12.46
2019-03-01T02:18:40.985Z,12.43
2019-03-01T02:19:08.530Z,12.49
2019-03-01T02:19:34.708Z,12.49
2019-03-01T02:20:00.813Z,12.47
2019-03-01T02:20:26.920Z,12.45
2019-03-01T02:20:53.026Z,12.53
2019-03-01T02:21:19.137Z,12.46
2019-03-01T02:21:45.272Z,12.47
2019-03-01T02:22:11.375Z,12.45
2019-03-01T02:22:37.485Z,12.47
2019-03-01T02:23:03.626Z,12.43
2019-03-01T02:23:29.786Z,12.49
2019-03-01T02:23:55.896Z,12.46
2019-03-01T02:24:22.030Z,12.49
2019-03-01T02:24:48.164Z,12.53
2019-03-01T02:25:14.270Z,12.46
2019-03-01T02:25:40.427Z,12.53
2019-03-01T02:26:06.546Z,12.53
2019-03-01T02:26:32.636Z,12.5
2019-03-01T02:26:58.743Z,12.58
2019-03-01T02:27:24.848Z,12.49
2019-03-01T02:27:50.957Z,12.45
2019-03-01T02:28:17.064Z,12.47
2019-03-01T02:28:43.171Z,12.49
2019-03-01T02:29:09.310Z,12.53
2019-03-01T02:29:35.439Z,12.54
2019-03-01T02:30:01.576Z,12.49
2019-03-01T02:30:27.709Z,12.53
2019-03-01T02:30:53.877Z,12.55
2019-03-01T02:31:20.044Z,12.54
2019-03-01T02:31:46.191Z,12.49
2019-03-01T02:32:12.332Z,12.49
2019-03-01T02:32:38.505Z,12.46
2019-03-01T02:33:04.610Z,12.47
2019-03-01T02:33:30.737Z,12.53
2019-03-01T02:33:56.870Z,12.57
2019-03-01T02:34:22.981Z,12.6
2019-03-01T02:34:49.086Z,12.58
2019-03-01T02:35:15.197Z,12.57
2019-03-01T02:35:41.371Z,12.55
2019-03-01T02:36:07.468Z,12.58
2019-03-01T02:36:33.572Z,12.53
2019-03-01T02:36:59.707Z,12.49
2019-03-01T02:37:25.849Z,12.57
2019-03-01T02:37:51.981Z,12.54
2019-03-01T02:38:18.115Z,12.58
2019-03-01T02:38:44.243Z,12.54
2019-03-01T02:39:10.355Z,12.53
2019-03-01T02:39:36.457Z,12.6
2019-03-01T02:40:02.570Z,12.53
2019-03-01T02:40:28.669Z,12.53
2019-03-01T02:40:54.806Z,12.55
2019-03-01T02:41:20.915Z,12.61
2019-03-01T02:41:47.026Z,12.55
2019-03-01T02:42:13.159Z,12.58
2019-03-01T02:42:39.303Z,12.53
2019-03-01T02:43:05.486Z,12.5
2019-03-01T02:43:31.595Z,12.54
2019-03-01T02:43:57.709Z,12.55
2019-03-01T02:44:23.837Z,12.58
2019-03-01T02:44:49.946Z,12.58
2019-03-01T02:45:16.129Z,12.53
2019-03-01T02:45:42.325Z,12.5
2019-03-01T02:46:08.550Z,12.49
2019-03-01T02:46:34.651Z,12.55
2019-03-01T02:47:00.757Z,12.5
2019-03-01T02:47:26.868Z,12.53
2019-03-01T02:47:53.033Z,12.53
2019-03-01T02:48:19.135Z,12.47
2019-03-01T02:48:45.282Z,12.53
2019-03-01T02:49:11.410Z,12.4
2019-03-01T02:49:37.544Z,12.42
2019-03-01T02:50:03.709Z,12.46
2019-03-01T02:50:29.901Z,12.47
2019-03-01T02:50:56.001Z,12.43
2019-03-01T02:51:22.175Z,12.37
2019-03-01T02:51:48.302Z,12.42
2019-03-01T02:52:14.418Z,12.43
2019-03-01T02:52:40.533Z,12.42
2019-03-01T02:53:06.664Z,12.39
2019-03-01T02:53:32.776Z,12.32
2019-03-01T02:53:58.880Z,12.4
2019-03-01T02:54:25.021Z,12.39
2019-03-01T02:54:51.151Z,12.32
2019-03-01T02:55:17.307Z,12.36
2019-03-01T02:55:43.449Z,12.31
2019-03-01T02:56:09.688Z,12.32
2019-03-01T02:56:35.834Z,12.35
2019-03-01T02:57:01.936Z,12.22
2019-03-01T02:57:28.050Z,12.27
2019-03-01T02:57:54.159Z,12.22
2019-03-01T02:58:20.290Z,12.37
2019-03-01T02:58:46.426Z,12.32
2019-03-01T02:59:12.533Z,12.35
2019-03-01T02:59:38.644Z,12.39
2019-03-01T03:00:04.750Z,12.37
2019-03-01T03:00:30.857Z,12.37
2019-03-01T03:00:56.979Z,12.27
2019-03-01T03:01:23.102Z,12.27
2019-03-01T03:01:49.215Z,12.35
2019-03-01T03:02:15.354Z,12.25
2019-03-01T03:02:41.562Z,12.28
2019-03-01T03:03:07.729Z,12.31
2019-03-01T03:03:33.850Z,12.28
2019-03-01T03:03:59.976Z,12.28
2019-03-01T03:04:26.083Z,12.28
2019-03-01T03:04:52.221Z,12.32
2019-03-01T03:05:18.351Z,12.25
2019-03-01T03:05:44.524Z,12.28
2019-03-01T03:06:10.718Z,12.28
2019-03-01T03:06:36.909Z,12.25
2019-03-01T03:07:03.049Z,12.36
2019-03-01T03:07:29.188Z,12.36
2019-03-01T03:07:55.310Z,12.29
2019-03-01T03:08:21.424Z,12.36
2019-03-01T03:08:47.523Z,12.36
2019-03-01T03:09:13.656Z,12.29
2019-03-01T03:09:39.803Z,12.25
2019-03-01T03:10:05.907Z,12.28
2019-03-01T03:10:32.039Z,12.29
2019-03-01T03:10:58.169Z,12.37
2019-03-01T03:11:24.283Z,12.32
2019-03-01T03:11:50.461Z,12.35
2019-03-01T03:12:16.621Z,12.25
2019-03-01T03:12:42.751Z,12.36
2019-03-01T03:13:08.913Z,12.31
2019-03-01T03:13:35.044Z,12.32
2019-03-01T03:14:01.155Z,12.39
2019-03-01T03:14:27.294Z,12.37
2019-03-01T03:14:53.390Z,12.4
2019-03-01T03:15:19.522Z,12.45
2019-03-01T03:15:45.630Z,12.43
2019-03-01T03:16:11.737Z,12.36
2019-03-01T03:16:37.866Z,12.39
2019-03-01T03:17:04.010Z,12.4
2019-03-01T03:17:30.124Z,12.37
2019-03-01T03:17:56.254Z,12.36
2019-03-01T03:18:22.364Z,12.43
2019-03-01T03:18:48.467Z,12.42
2019-03-01T03:19:14.589Z,12.4
2019-03-01T03:19:40.700Z,12.45
2019-03-01T03:20:06.861Z,12.47
2019-03-01T03:20:33.029Z,12.42
2019-03-01T03:20:59.135Z,12.45
2019-03-01T03:21:25.267Z,12.49
2019-03-01T03:21:51.402Z,12.5
2019-03-01T03:22:17.541Z,12.49
2019-03-01T03:22:43.681Z,12.5
2019-03-01T03:23:09.794Z,12.54
2019-03-01T03:23:36.002Z,12.53
2019-03-01T03:24:02.174Z,12.54
2019-03-01T03:24:28.252Z,12.5
2019-03-01T03:24:54.368Z,12.53
2019-03-01T03:25:20.475Z,12.54
2019-03-01T03:25:46.575Z,12.49
2019-03-01T03:26:12.717Z,12.5
2019-03-01T03:26:38.849Z,12.55
2019-03-01T03:27:04.978Z,12.55
2019-03-01T03:27:31.110Z,12.55
2019-03-01T03:27:57.249Z,12.55
2019-03-01T03:28:23.394Z,12.47
2019-03-01T03:28:49.525Z,12.53
2019-03-01T03:29:15.663Z,12.53
2019-03-01T03:29:41.766Z,12.55
2019-03-01T03:30:07.904Z,12.67
2019-03-01T03:30:34.093Z,12.65
2019-03-01T03:31:00.214Z,12.49
2019-03-01T03:31:26.338Z,12.53
2019-03-01T03:31:52.446Z,12.53
2019-03-01T03:32:18.627Z,12.55
2019-03-01T03:32:44.754Z,12.55
2019-03-01T03:33:10.925Z,12.55
2019-03-01T03:33:37.129Z,12.55
2019-03-01T03:34:03.221Z,12.57
2019-03-01T03:34:29.382Z,12.58
2019-03-01T03:34:55.482Z,12.62
2019-03-01T03:35:21.625Z,12.54
2019-03-01T03:35:47.761Z,12.57
2019-03-01T03:36:13.923Z,12.54
2019-03-01T03:36:40.083Z,12.5
2019-03-01T03:37:06.223Z,12.61
2019-03-01T03:37:32.396Z,12.55
2019-03-01T03:37:58.523Z,12.62
2019-03-01T03:38:24.687Z,12.62
2019-03-01T03:38:50.831Z,12.62
2019-03-01T03:39:16.939Z,12.58
2019-03-01T03:39:43.070Z,12.64
2019-03-01T03:40:09.178Z,12.6
2019-03-01T03:40:35.282Z,12.65
2019-03-01T03:41:01.410Z,12.64
2019-03-01T03:41:27.511Z,12.61
2019-03-01T03:41:53.622Z,12.65
2019-03-01T03:42:19.727Z,12.68
2019-03-01T03:42:45.860Z,12.62
2019-03-01T03:43:11.995Z,12.6
2019-03-01T03:43:38.571Z,12.61
2019-03-01T03:44:04.711Z,12.6
2019-03-01T03:44:30.823Z,12.61
2019-03-01T03:44:56.954Z,12.61
2019-03-01T03:45:23.086Z,12.6
2019-03-01T03:45:49.227Z,12.67
2019-03-01T03:46:15.345Z,12.65
2019-03-01T03:46:41.442Z,12.72
2019-03-01T03:47:07.573Z,12.62
2019-03-01T03:47:33.706Z,12.7
2019-03-01T03:47:59.865Z,12.7
2019-03-01T03:48:26.019Z,12.68
2019-03-01T03:48:52.300Z,12.68
2019-03-01T03:49:18.429Z,12.67
2019-03-01T03:49:44.563Z,12.64
2019-03-01T03:50:10.936Z,12.72
2019-03-01T03:50:37.073Z,12.68
2019-03-01T03:51:03.206Z,12.75
2019-03-01T03:51:29.320Z,12.82
2019-03-01T03:51:55.426Z,12.8
2019-03-01T03:52:21.596Z,12.68
2019-03-01T03:52:47.703Z,12.68
2019-03-01T03:53:13.799Z,12.65
2019-03-01T03:53:39.941Z,12.75
2019-03-01T03:54:06.046Z,12.75
2019-03-01T03:54:32.155Z,12.61
2019-03-01T03:54:58.277Z,12.7
2019-03-01T03:55:24.418Z,12.73
2019-03-01T03:55:50.532Z,12.7
2019-03-01T03:56:16.633Z,12.7
2019-03-01T03:56:42.825Z,12.68
2019-03-01T03:57:08.937Z,12.68
2019-03-01T03:57:35.106Z,12.72
2019-03-01T03:58:01.248Z,12.73
2019-03-01T03:58:27.356Z,12.76
2019-03-01T03:58:53.495Z,12.8
2019-03-01T03:59:19.629Z,12.75
2019-03-01T03:59:45.783Z,12.68
2019-03-01T04:00:11.895Z,12.79
2019-03-01T04:00:38.055Z,12.75
2019-03-01T04:01:04.158Z,12.65
2019-03-01T04:01:30.291Z,12.75
2019-03-01T04:01:56.396Z,12.85
2019-03-01T04:02:22.536Z,12.83
2019-03-01T04:02:48.651Z,12.79
2019-03-01T04:03:14.811Z,12.8
2019-03-01T04:03:40.930Z,12.72
2019-03-01T04:04:07.046Z,12.83
2019-03-01T04:04:33.146Z,12.7
2019-03-01T04:04:59.290Z,12.75
2019-03-01T04:05:25.395Z,12.75
2019-03-01T04:05:51.534Z,12.7
2019-03-01T04:06:17.675Z,12.78
2019-03-01T04:06:43.795Z,12.82
2019-03-01T04:07:09.921Z,12.79
2019-03-01T04:07:36.040Z,12.82
2019-03-01T04:08:02.173Z,12.83
2019-03-01T04:08:28.269Z,12.86
2019-03-01T04:08:54.381Z,12.86
2019-03-01T04:09:20.486Z,12.78
2019-03-01T04:09:46.619Z,12.8
2019-03-01T04:10:12.734Z,12.79
2019-03-01T04:10:38.836Z,12.82
2019-03-01T04:11:04.970Z,12.8
2019-03-01T04:11:31.081Z,12.94
2019-03-01T04:11:57.190Z,12.9
2019-03-01T04:12:23.301Z,12.93
2019-03-01T04:12:49.471Z,12.87
2019-03-01T04:13:16.713Z,12.85
2019-03-01T04:13:42.712Z,12.95
2019-03-01T04:14:08.837Z,13
2019-03-01T04:14:34.985Z,12.94
2019-03-01T04:15:01.177Z,12.91
2019-03-01T04:15:27.312Z,12.9
2019-03-01T04:15:53.439Z,12.97
2019-03-01T04:16:19.549Z,12.93
2019-03-01T04:16:45.689Z,12.83
2019-03-01T04:17:11.833Z,12.83
2019-03-01T04:17:37.947Z,12.83
2019-03-01T04:18:04.053Z,12.86
2019-03-01T04:18:30.229Z,12.86
2019-03-01T04:18:56.397Z,12.82
2019-03-01T04:19:22.557Z,12.83
2019-03-01T04:19:48.685Z,12.86
2019-03-01T04:20:14.823Z,12.86
2019-03-01T04:20:40.987Z,12.82
2019-03-01T04:21:07.093Z,12.78
2019-03-01T04:21:33.193Z,12.83
2019-03-01T04:21:59.300Z,12.83
2019-03-01T04:22:25.437Z,12.82
2019-03-01T04:22:51.569Z,12.67
2019-03-01T04:23:17.702Z,12.68
2019-03-01T04:23:43.804Z,12.68
2019-03-01T04:24:09.960Z,12.7
2019-03-01T04:24:36.098Z,12.65
2019-03-01T04:25:02.233Z,12.76
2019-03-01T04:25:28.368Z,12.72
2019-03-01T04:25:54.538Z,12.64
2019-03-01T04:26:20.648Z,12.61
2019-03-01T04:26:46.753Z,12.57
2019-03-01T04:27:12.860Z,12.6
2019-03-01T04:27:38.964Z,12.58
2019-03-01T04:28:05.064Z,12.62
2019-03-01T04:28:31.198Z,12.65
2019-03-01T04:28:57.307Z,12.7
2019-03-01T04:29:23.421Z,12.75
2019-03-01T04:29:49.525Z,12.76
2019-03-01T04:30:15.662Z,12.76
2019-03-01T04:30:41.761Z,12.7
2019-03-01T04:31:07.866Z,12.76
2019-03-01T04:31:34.001Z,12.7
2019-03-01T04:32:00.218Z,12.72
2019-03-01T04:32:26.324Z,12.58
2019-03-01T04:32:52.458Z,12.7
2019-03-01T04:33:18.581Z,12.76
2019-03-01T04:33:44.686Z,12.6
2019-03-01T04:34:11.330Z,12.61
2019-03-01T04:34:37.496Z,12.67
2019-03-01T04:35:03.626Z,12.6
2019-03-01T04:35:29.788Z,12.57
2019-03-01T04:35:55.924Z,12.64
2019-03-01T04:36:22.037Z,12.65
2019-03-01T04:36:48.169Z,12.68
2019-03-01T04:37:14.302Z,12.61
2019-03-01T04:37:40.412Z,12.61
2019-03-01T04:38:06.513Z,12.57
2019-03-01T04:38:32.622Z,12.58
2019-03-01T04:38:58.784Z,12.64
2019-03-01T04:39:24.914Z,12.65
2019-03-01T04:39:51.037Z,12.6
2019-03-01T04:40:17.181Z,12.7
2019-03-01T04:40:43.290Z,12.6
2019-03-01T04:41:09.402Z,12.62
2019-03-01T04:41:35.503Z,12.67
2019-03-01T04:42:01.613Z,12.61
2019-03-01T04:42:27.719Z,12.61
2019-03-01T04:42:53.857Z,12.64
2019-03-01T04:43:19.993Z,12.6
2019-03-01T04:43:46.101Z,12.55
2019-03-01T04:44:12.256Z,12.53
2019-03-01T04:44:38.372Z,12.5
2019-03-01T04:45:04.502Z,12.53
2019-03-01T04:45:30.639Z,12.55
2019-03-01T04:45:56.790Z,12.53
2019-03-01T04:46:22.895Z,12.49
2019-03-01T04:46:49.040Z,12.45
2019-03-01T04:47:15.155Z,12.49
2019-03-01T04:47:41.265Z,12.49
2019-03-01T04:48:07.372Z,12.49
2019-03-01T04:48:33.484Z,12.49
2019-03-01T04:48:59.587Z,12.49
2019-03-01T04:49:25.690Z,12.55
2019-03-01T04:49:51.807Z,12.46
2019-03-01T04:50:17.903Z,12.5
2019-03-01T04:50:44.011Z,12.45
2019-03-01T04:51:10.149Z,12.43
2019-03-01T04:51:39.993Z,12.42
2019-03-01T04:52:04.370Z,12.47
2019-03-01T04:52:30.479Z,12.45
2019-03-01T04:52:56.623Z,12.45
2019-03-01T04:53:22.718Z,12.47
2019-03-01T04:53:48.827Z,12.5
2019-03-01T04:54:14.928Z,12.49
2019-03-01T04:54:41.066Z,12.47
2019-03-01T04:55:07.177Z,12.5
2019-03-01T04:55:33.278Z,12.47
2019-03-01T04:55:59.414Z,12.46
2019-03-01T04:56:26.513Z,12.46
2019-03-01T04:56:52.613Z,12.49
2019-03-01T04:57:18.725Z,12.47
2019-03-01T04:57:44.835Z,12.46
2019-03-01T04:58:10.935Z,12.49
2019-03-01T04:58:37.066Z,12.54
2019-03-01T04:59:03.201Z,12.49
2019-03-01T04:59:29.309Z,12.58
2019-03-01T04:59:55.444Z,12.58
2019-03-01T05:00:21.560Z,12.49
2019-03-01T05:00:47.659Z,12.58
2019-03-01T05:01:13.797Z,12.54
2019-03-01T05:01:39.906Z,12.47
2019-03-01T05:02:06.007Z,12.53
2019-03-01T05:02:32.151Z,12.54
2019-03-01T05:02:58.263Z,12.46
2019-03-01T05:03:24.374Z,12.57
2019-03-01T05:03:50.486Z,12.53
2019-03-01T05:04:16.612Z,12.55
2019-03-01T05:04:42.716Z,12.47
2019-03-01T05:05:08.821Z,12.53
2019-03-01T05:05:34.929Z,12.54
2019-03-01T05:06:01.063Z,12.54
2019-03-01T05:06:27.171Z,12.54
2019-03-01T05:06:53.313Z,12.53
2019-03-01T05:07:19.420Z,12.5
2019-03-01T05:07:45.525Z,12.55
2019-03-01T05:08:11.628Z,12.61
2019-03-01T05:08:37.735Z,12.5
2019-03-01T05:09:03.875Z,12.58
2019-03-01T05:09:30.013Z,12.49
2019-03-01T05:09:56.148Z,12.54
2019-03-01T05:10:22.279Z,12.61
2019-03-01T05:10:48.390Z,12.53
2019-03-01T05:11:14.518Z,12.53
2019-03-01T05:11:40.619Z,12.54
2019-03-01T05:12:06.726Z,12.58
2019-03-01T05:12:32.841Z,12.57
2019-03-01T05:12:58.946Z,12.57
2019-03-01T05:13:25.056Z,12.55
2019-03-01T05:13:51.159Z,12.64
2019-03-01T05:14:17.263Z,12.64
2019-03-01T05:14:43.372Z,12.61
2019-03-01T05:15:09.511Z,12.6
2019-03-01T05:15:35.649Z,12.64
2019-03-01T05:16:01.761Z,12.65
2019-03-01T05:16:27.932Z,12.7
2019-03-01T05:16:54.052Z,12.65
2019-03-01T05:17:20.163Z,12.58
2019-03-01T05:17:46.271Z,12.68
2019-03-01T05:18:12.413Z,12.64
2019-03-01T05:18:38.503Z,12.62
2019-03-01T05:19:04.617Z,12.64
2019-03-01T05:19:30.721Z,12.62
2019-03-01T05:19:56.828Z,12.6
2019-03-01T05:20:22.939Z,12.64
2019-03-01T05:20:49.118Z,12.67
2019-03-01T05:21:15.198Z,12.64
2019-03-01T05:21:41.306Z,12.55
2019-03-01T05:22:07.440Z,12.61
2019-03-01T05:22:33.569Z,12.6
2019-03-01T05:22:59.674Z,12.65
2019-03-01T05:23:25.779Z,12.72
2019-03-01T05:23:51.883Z,12.6
2019-03-01T05:24:17.995Z,12.67
2019-03-01T05:24:44.103Z,12.58
2019-03-01T05:25:10.271Z,12.61
2019-03-01T05:25:36.426Z,12.73
2019-03-01T05:26:03.400Z,12.73
2019-03-01T05:26:29.506Z,12.65
2019-03-01T05:26:55.643Z,12.73
2019-03-01T05:27:21.758Z,12.68
2019-03-01T05:27:47.860Z,12.62
2019-03-01T05:28:13.968Z,12.73
2019-03-01T05:28:40.071Z,12.68
2019-03-01T05:29:06.177Z,12.57
2019-03-01T05:29:32.284Z,12.55
2019-03-01T05:29:58.395Z,12.58
2019-03-01T05:30:24.495Z,12.7
2019-03-01T05:30:50.600Z,12.62
2019-03-01T05:31:16.709Z,12.54
2019-03-01T05:31:42.811Z,12.58
2019-03-01T05:32:08.916Z,12.58
2019-03-01T05:32:35.027Z,12.73
2019-03-01T05:33:01.158Z,12.64
2019-03-01T05:33:27.304Z,12.65
2019-03-01T05:33:55.311Z,12.58
2019-03-01T05:34:20.505Z,12.68
2019-03-01T05:34:46.611Z,12.7
2019-03-01T05:35:12.724Z,12.55
2019-03-01T05:35:38.827Z,12.68
2019-03-01T05:36:04.927Z,12.65
2019-03-01T05:36:31.038Z,12.57
2019-03-01T05:36:57.145Z,12.58
2019-03-01T05:37:23.280Z,12.58
2019-03-01T05:37:49.407Z,12.58
2019-03-01T05:38:21.642Z,12.64